Albany, Texas
Current Conditions -  °F | °C
As of 8:55 PM on Thursday 18 Dec 2014 (Local Time) from KBKD Reporting Station
Overcast Overcast  
Wind Chill:   Ceiling: 1100
Heat Index:   Visibility: 7mi
Dew Point:   Wind: 7mph
Humidity: 81%   Direction: 40°NE
Pressure: 30.16"   Gusts: NA
Location:  32.72°N, 99.3°W
Report Text: KBKD 190255Z AUTO 04006KT 7SM OVC011 09/06 A3016 RMK AO2 T00900059
Loading
Personal Weather Stations






























Interactive Weather Map New forecast layout! Learn more

10-Day Weather Forecast

Advertisements
Track Severe Weather on mobile